Time;durP1;ratioP1;P1;durP2;ratioP2;P2;SDS_P1;SDS_P2;PMS_P1;PMS_P2;Temp;Humidity;BMP_temperature;BMP_pressure;BME280_temperature;BME280_humidity;BME280_pressure;Samples;Min_cycle;Max_cycle;Signal;HPM_P1;HPM_P2
2022/01/24 00:02:24;;;;;;;26.45;18.73;;;;;;;;;;5049819;28;20370;-62
2022/01/24 00:04:50;;;;;;;26.08;17.10;;;;;;;;;;5061930;28;20125;-62
2022/01/24 00:07:20;;;;;;;26.52;18.02;;;;;;;;;;5042573;28;20124;-63
2022/01/24 00:09:46;;;;;;;27.52;17.17;;;;;;;;;;5058681;28;20084;-62
2022/01/24 00:12:27;;;;;;;25.77;16.48;;;;;;;;;;5043376;28;20120;-62
2022/01/24 00:15:13;;;;;;;25.88;16.55;;;;;;;;;;5040798;28;20044;-63
2022/01/24 00:17:46;;;;;;;26.70;16.88;;;;;;;;;;5041496;28;20174;-62
2022/01/24 00:28:09;;;;;;;25.25;15.98;;;;;;;;;;5045885;28;20056;-62
2022/01/24 00:30:35;;;;;;;28.00;16.75;;;;;;;;;;5046502;28;20037;-62
2022/01/24 00:33:01;;;;;;;24.10;16.17;;;;;;;;;;5044537;28;20159;-62
2022/01/24 00:35:27;;;;;;;25.55;15.85;;;;;;;;;;5040171;28;20063;-63
2022/01/24 00:37:59;;;;;;;21.73;14.77;;;;;;;;;;5044732;28;20136;-63
2022/01/24 00:40:26;;;;;;;25.23;15.43;;;;;;;;;;5046790;28;20049;-62
2022/01/24 00:42:56;;;;;;;21.67;13.77;;;;;;;;;;5047212;28;20144;-63
2022/01/24 00:45:48;;;;;;;22.90;14.50;;;;;;;;;;5041028;28;20053;-62
2022/01/24 00:48:37;;;;;;;21.08;14.48;;;;;;;;;;5044232;28;20060;-63
2022/01/24 00:54:00;;;;;;;21.83;13.52;;;;;;;;;;5049818;28;20049;-62
2022/01/24 00:56:26;;;;;;;21.38;12.80;;;;;;;;;;5046010;28;20540;-62
2022/01/24 00:58:53;;;;;;;18.17;12.82;;;;;;;;;;5049243;28;20040;-62
2022/01/24 01:01:19;;;;;;;19.35;12.30;;;;;;;;;;5047375;28;20044;-62
2022/01/24 01:03:45;;;;;;;18.02;12.25;;;;;;;;;;5042522;28;20076;-62
2022/01/24 01:06:12;;;;;;;19.52;12.43;;;;;;;;;;5044137;28;20041;-62
2022/01/24 01:19:41;;;;;;;14.90;10.85;;;;;;;;;;5057460;28;20052;-63
2022/01/24 01:22:07;;;;;;;15.90;10.73;;;;;;;;;;5042763;28;20132;-62
2022/01/24 01:24:38;;;;;;;14.45;9.55;;;;;;;;;;5041917;28;20048;-62
2022/01/24 01:27:11;;;;;;;14.43;9.73;;;;;;;;;;5047333;28;20323;-62
2022/01/24 01:29:51;;;;;;;16.98;10.73;;;;;;;;;;5046120;28;20210;-62
2022/01/24 01:32:44;;;;;;;14.07;9.45;;;;;;;;;;5039912;28;20112;-62
2022/01/24 01:38:17;;;;;;;13.60;9.00;;;;;;;;;;5044348;28;20202;-62
2022/01/24 01:54:17;;;;;;;13.38;9.23;;;;;;;;;;5042346;28;20071;-62
2022/01/24 01:56:43;;;;;;;13.15;8.38;;;;;;;;;;5043453;28;20055;-62
2022/01/24 01:59:10;;;;;;;13.32;8.68;;;;;;;;;;5038053;28;20397;-62
2022/01/24 02:01:36;;;;;;;13.05;8.60;;;;;;;;;;5037418;28;20048;-62
2022/01/24 02:04:05;;;;;;;12.25;9.13;;;;;;;;;;5035813;28;20041;-62
2022/01/24 02:06:31;;;;;;;12.15;8.48;;;;;;;;;;5039509;28;20049;-63
2022/01/24 02:08:58;;;;;;;12.02;8.48;;;;;;;;;;5045571;28;20052;-62
2022/01/24 02:11:24;;;;;;;13.00;8.35;;;;;;;;;;5038538;28;20048;-62
2022/01/24 02:13:50;;;;;;;12.60;8.00;;;;;;;;;;5036255;28;20084;-62
2022/01/24 02:16:30;;;;;;;12.15;8.43;;;;;;;;;;5035706;28;20124;-62
2022/01/24 02:19:12;;;;;;;12.05;7.38;;;;;;;;;;5049070;28;20494;-63
2022/01/24 02:21:47;;;;;;;12.60;7.88;;;;;;;;;;5047467;28;20049;-63
2022/01/24 02:24:15;;;;;;;12.38;8.20;;;;;;;;;;5046504;28;20045;-63
2022/01/24 02:26:42;;;;;;;12.32;7.85;;;;;;;;;;5035738;28;21095;-63
2022/01/24 02:29:16;;;;;;;11.02;7.28;;;;;;;;;;5038313;28;20045;-63
2022/01/24 02:31:51;;;;;;;11.13;7.60;;;;;;;;;;5049750;28;20121;-63
2022/01/24 02:34:18;;;;;;;10.70;7.10;;;;;;;;;;5040584;28;20048;-62
2022/01/24 02:36:45;;;;;;;11.45;7.57;;;;;;;;;;5041166;28;20049;-62
2022/01/24 02:50:19;;;;;;;12.48;8.25;;;;;;;;;;5056178;28;20085;-62
2022/01/24 02:52:45;;;;;;;13.68;8.38;;;;;;;;;;5039336;28;20059;-62
2022/01/24 02:55:11;;;;;;;13.27;7.63;;;;;;;;;;5039613;28;20840;-62
2022/01/24 02:57:37;;;;;;;12.80;8.45;;;;;;;;;;5048141;28;20088;-63
2022/01/24 03:00:04;;;;;;;14.20;8.20;;;;;;;;;;5047492;28;20060;-62
2022/01/24 03:02:30;;;;;;;17.05;7.97;;;;;;;;;;5046012;28;20349;-63
2022/01/24 03:04:57;;;;;;;14.57;8.82;;;;;;;;;;5044852;28;20049;-63
2022/01/24 03:07:23;;;;;;;16.73;8.85;;;;;;;;;;5044002;28;20111;-63
2022/01/24 03:09:52;;;;;;;13.10;7.97;;;;;;;;;;5041290;28;20084;-62
2022/01/24 03:12:39;;;;;;;10.68;7.20;;;;;;;;;;5046518;28;20098;-62
2022/01/24 03:15:04;;;;;;;13.15;7.80;;;;;;;;;;5038522;28;20056;-63
2022/01/24 03:17:30;;;;;;;10.82;7.00;;;;;;;;;;5035829;28;20041;-63
2022/01/24 03:19:57;;;;;;;13.23;8.27;;;;;;;;;;5038993;28;20046;-62
2022/01/24 03:22:23;;;;;;;10.55;7.32;;;;;;;;;;5033518;28;20064;-62
2022/01/24 03:24:49;;;;;;;13.48;8.65;;;;;;;;;;5048607;28;20061;-62
2022/01/24 03:27:16;;;;;;;12.13;8.60;;;;;;;;;;5051680;28;20069;-62
2022/01/24 03:29:42;;;;;;;13.38;8.73;;;;;;;;;;5065024;28;20037;-63
2022/01/24 03:32:08;;;;;;;12.13;7.82;;;;;;;;;;5021128;28;20105;-62
2022/01/24 03:34:34;;;;;;;13.95;8.45;;;;;;;;;;5034744;28;20064;-62
2022/01/24 03:37:00;;;;;;;11.43;8.13;;;;;;;;;;5037805;28;20033;-62
2022/01/24 03:39:26;;;;;;;14.02;8.68;;;;;;;;;;5039213;28;20441;-62
2022/01/24 03:41:52;;;;;;;12.30;7.90;;;;;;;;;;5041441;28;20420;-62
2022/01/24 03:44:19;;;;;;;15.75;9.73;;;;;;;;;;5042713;28;20037;-62
2022/01/24 03:46:59;;;;;;;12.60;8.30;;;;;;;;;;5042617;28;20060;-62
2022/01/24 03:52:10;;;;;;;14.73;9.38;;;;;;;;;;5035806;28;20060;-62
2022/01/24 03:54:36;;;;;;;14.52;8.98;;;;;;;;;;5047363;28;20441;-62
2022/01/24 03:57:04;;;;;;;13.27;8.77;;;;;;;;;;5049305;28;20044;-63
2022/01/24 03:59:33;;;;;;;13.23;9.20;;;;;;;;;;5045071;28;20121;-62
2022/01/24 04:01:59;;;;;;;15.68;10.43;;;;;;;;;;5047383;28;20045;-63
2022/01/24 04:04:26;;;;;;;15.02;9.95;;;;;;;;;;5044664;28;20041;-62
2022/01/24 04:06:52;;;;;;;13.13;9.00;;;;;;;;;;5040936;28;20119;-62
2022/01/24 04:09:19;;;;;;;18.33;9.82;;;;;;;;;;5041333;28;20041;-62
2022/01/24 04:11:47;;;;;;;17.23;9.50;;;;;;;;;;5041822;28;20048;-63
2022/01/24 04:22:18;;;;;;;14.07;9.68;;;;;;;;;;5034761;28;20426;-62
2022/01/24 04:24:47;;;;;;;14.73;9.32;;;;;;;;;;5037024;28;20102;-62
2022/01/24 04:27:14;;;;;;;15.13;10.00;;;;;;;;;;5037717;28;20041;-62
2022/01/24 04:29:41;;;;;;;13.60;9.27;;;;;;;;;;5044391;28;20061;-62
2022/01/24 04:32:07;;;;;;;16.27;10.07;;;;;;;;;;5039784;28;20041;-62
2022/01/24 04:34:34;;;;;;;14.52;9.95;;;;;;;;;;5039780;28;20085;-62
2022/01/24 04:37:01;;;;;;;13.65;9.40;;;;;;;;;;5039054;28;20045;-63
2022/01/24 04:39:27;;;;;;;16.58;10.25;;;;;;;;;;5039073;28;20080;-63
2022/01/24 04:41:56;;;;;;;20.13;10.13;;;;;;;;;;5038288;28;20131;-62
2022/01/24 04:52:33;;;;;;;15.82;10.95;;;;;;;;;;5048469;28;20117;-62
2022/01/24 04:55:00;;;;;;;15.10;10.18;;;;;;;;;;5043632;28;20059;-62
2022/01/24 04:57:27;;;;;;;14.77;10.05;;;;;;;;;;5047868;28;20107;-63
2022/01/24 04:59:56;;;;;;;14.95;10.40;;;;;;;;;;5048221;28;20438;-62
2022/01/24 05:02:23;;;;;;;16.20;10.25;;;;;;;;;;5045717;28;20048;-62
2022/01/24 05:04:50;;;;;;;17.58;10.35;;;;;;;;;;5044856;28;20041;-62
2022/01/24 05:07:16;;;;;;;15.73;10.88;;;;;;;;;;5040619;28;20099;-62
2022/01/24 05:09:50;;;;;;;17.02;11.65;;;;;;;;;;5039728;28;20404;-62
2022/01/24 05:12:26;;;;;;;;;;;;;;;;;;5043650;28;20045;-62
2022/01/24 05:23:29;;;;;;;18.70;10.85;;;;;;;;;;5060853;28;20082;-62
2022/01/24 05:25:56;;;;;;;19.95;11.32;;;;;;;;;;5045840;28;20041;-62
2022/01/24 05:28:23;;;;;;;17.02;10.70;;;;;;;;;;5037818;28;20128;-62
2022/01/24 05:30:49;;;;;;;16.15;10.55;;;;;;;;;;5036645;28;20045;-62
2022/01/24 05:33:15;;;;;;;17.77;10.77;;;;;;;;;;5035178;28;20048;-63
2022/01/24 05:35:41;;;;;;;18.77;11.35;;;;;;;;;;5034933;28;20482;-62
2022/01/24 05:38:10;;;;;;;18.13;11.20;;;;;;;;;;5032475;28;20077;-62
2022/01/24 05:40:36;;;;;;;17.40;10.80;;;;;;;;;;5039276;28;20042;-62
2022/01/24 05:43:02;;;;;;;15.77;10.75;;;;;;;;;;5044112;28;20053;-62
2022/01/24 05:45:28;;;;;;;16.70;11.10;;;;;;;;;;5046078;28;20112;-62
2022/01/24 05:47:54;;;;;;;18.20;11.63;;;;;;;;;;5043792;28;20049;-63
2022/01/24 05:50:20;;;;;;;19.88;10.82;;;;;;;;;;5048662;28;20163;-63
2022/01/24 05:52:47;;;;;;;18.55;11.45;;;;;;;;;;5043137;28;20507;-62
2022/01/24 05:55:13;;;;;;;17.27;11.40;;;;;;;;;;5040795;28;20037;-62
2022/01/24 05:57:39;;;;;;;18.30;11.23;;;;;;;;;;5060428;28;20041;-63
2022/01/24 06:00:06;;;;;;;14.65;9.68;;;;;;;;;;5046772;28;20115;-63
2022/01/24 06:02:32;;;;;;;17.58;10.15;;;;;;;;;;5048650;28;20048;-63
2022/01/24 06:04:58;;;;;;;19.23;12.32;;;;;;;;;;5040881;28;20052;-62
2022/01/24 06:07:24;;;;;;;19.58;11.60;;;;;;;;;;5042315;28;20064;-63
2022/01/24 06:09:50;;;;;;;15.63;11.20;;;;;;;;;;5047748;28;20044;-63
2022/01/24 06:12:17;;;;;;;18.60;12.20;;;;;;;;;;5047742;28;20037;-62
2022/01/24 06:14:43;;;;;;;19.42;11.55;;;;;;;;;;5055608;28;20045;-62
2022/01/24 06:17:10;;;;;;;19.63;12.00;;;;;;;;;;5038962;28;20327;-62
2022/01/24 06:19:37;;;;;;;20.15;12.45;;;;;;;;;;5060343;28;20132;-62
2022/01/24 06:22:03;;;;;;;20.10;12.38;;;;;;;;;;5044125;28;20400;-61
2022/01/24 06:24:29;;;;;;;19.25;12.77;;;;;;;;;;5041795;28;20407;-62
2022/01/24 06:26:55;;;;;;;18.75;11.63;;;;;;;;;;5043167;28;20097;-62
2022/01/24 06:29:21;;;;;;;19.75;12.10;;;;;;;;;;5050020;28;20479;-62
2022/01/24 06:31:48;;;;;;;22.25;12.52;;;;;;;;;;5048600;28;20422;-62
2022/01/24 06:34:14;;;;;;;19.05;12.23;;;;;;;;;;5045975;28;20150;-71
2022/01/24 06:36:40;;;;;;;19.60;11.77;;;;;;;;;;5058396;28;20407;-63
2022/01/24 06:39:07;;;;;;;21.10;12.63;;;;;;;;;;5039490;28;20041;-66
2022/01/24 06:41:35;;;;;;;21.23;12.40;;;;;;;;;;5039744;28;20092;-65
2022/01/24 06:44:02;;;;;;;21.73;12.05;;;;;;;;;;5049158;28;20053;-65
2022/01/24 06:46:28;;;;;;;20.85;12.90;;;;;;;;;;5049866;28;20080;-64
2022/01/24 06:48:54;;;;;;;20.83;12.55;;;;;;;;;;5044853;28;20091;-66
2022/01/24 06:51:21;;;;;;;19.80;12.98;;;;;;;;;;5042701;28;20041;-65
2022/01/24 06:53:48;;;;;;;22.13;12.15;;;;;;;;;;5042110;28;20123;-65
2022/01/24 06:56:15;;;;;;;21.58;12.93;;;;;;;;;;5044041;28;20055;-65
2022/01/24 06:58:41;;;;;;;23.42;13.65;;;;;;;;;;5039232;28;20077;-65
2022/01/24 07:01:08;;;;;;;22.27;12.50;;;;;;;;;;5053651;28;20048;-66
2022/01/24 07:03:34;;;;;;;22.35;13.18;;;;;;;;;;5046453;28;20045;-66
2022/01/24 07:06:01;;;;;;;19.60;12.73;;;;;;;;;;5046653;28;20040;-65
2022/01/24 07:08:27;;;;;;;20.48;12.55;;;;;;;;;;5045368;28;20048;-65
2022/01/24 07:10:53;;;;;;;18.70;12.05;;;;;;;;;;5049242;28;20116;-65
2022/01/24 07:13:21;;;;;;;19.63;11.88;;;;;;;;;;5050310;28;20098;-65
2022/01/24 07:15:52;;;;;;;22.70;13.63;;;;;;;;;;5047575;28;20480;-65
2022/01/24 07:20:53;;;;;;;23.00;12.40;;;;;;;;;;5047826;28;20457;-66
2022/01/24 07:23:19;;;;;;;23.88;13.52;;;;;;;;;;5063730;28;20128;-65
2022/01/24 07:25:46;;;;;;;22.80;13.18;;;;;;;;;;5047532;28;20091;-65
2022/01/24 07:28:13;;;;;;;22.23;12.90;;;;;;;;;;5051826;28;20041;-65
2022/01/24 07:30:39;;;;;;;21.48;12.30;;;;;;;;;;5048834;28;20041;-65
2022/01/24 07:33:06;;;;;;;20.85;12.82;;;;;;;;;;5042156;28;20171;-65
2022/01/24 07:35:32;;;;;;;23.58;12.10;;;;;;;;;;5036917;28;20046;-65
2022/01/24 07:37:58;;;;;;;17.75;12.18;;;;;;;;;;5039926;28;20049;-65
2022/01/24 07:40:24;;;;;;;22.27;12.95;;;;;;;;;;5036047;28;20048;-65
2022/01/24 07:42:55;;;;;;;20.20;12.60;;;;;;;;;;5044422;28;20574;-65
2022/01/24 07:45:22;;;;;;;24.60;14.20;;;;;;;;;;5045845;28;20056;-64
2022/01/24 07:47:49;;;;;;;23.75;14.10;;;;;;;;;;5048083;28;20041;-65
2022/01/24 07:50:17;;;;;;;22.15;12.93;;;;;;;;;;5045407;28;20048;-65
2022/01/24 07:52:43;;;;;;;24.90;14.15;;;;;;;;;;5046179;28;20441;-65
2022/01/24 07:55:09;;;;;;;24.70;14.30;;;;;;;;;;5047278;28;20041;-64
2022/01/24 07:57:35;;;;;;;25.92;14.55;;;;;;;;;;5040571;28;20126;-65
2022/01/24 08:00:02;;;;;;;24.65;14.77;;;;;;;;;;5041999;28;20210;-65
2022/01/24 08:02:28;;;;;;;25.55;14.85;;;;;;;;;;5059581;28;20041;-65
2022/01/24 08:04:54;;;;;;;23.85;14.85;;;;;;;;;;5042065;28;20452;-65
2022/01/24 08:07:20;;;;;;;22.73;13.90;;;;;;;;;;5044416;28;20037;-65
2022/01/24 08:09:46;;;;;;;25.38;15.25;;;;;;;;;;5044604;28;20421;-65
2022/01/24 08:12:13;;;;;;;26.52;14.95;;;;;;;;;;5038452;28;20041;-65
2022/01/24 08:14:39;;;;;;;23.20;14.23;;;;;;;;;;5036832;28;20045;-65
2022/01/24 08:17:05;;;;;;;28.00;14.50;;;;;;;;;;5046821;28;20057;-65
2022/01/24 08:19:34;;;;;;;24.00;13.65;;;;;;;;;;5033381;28;20037;-65
2022/01/24 08:22:00;;;;;;;23.42;14.52;;;;;;;;;;5034361;28;20128;-65
2022/01/24 08:24:27;;;;;;;27.85;15.75;;;;;;;;;;5057805;28;20037;-65
2022/01/24 08:26:54;;;;;;;28.80;16.63;;;;;;;;;;5042156;28;20465;-65
2022/01/24 08:29:20;;;;;;;30.52;16.73;;;;;;;;;;5039531;28;20068;-65
2022/01/24 08:31:46;;;;;;;28.05;16.27;;;;;;;;;;5041648;28;20041;-65
2022/01/24 08:34:13;;;;;;;27.98;15.63;;;;;;;;;;5038860;28;20053;-65
2022/01/24 08:36:39;;;;;;;32.17;17.25;;;;;;;;;;5040778;28;20041;-65
2022/01/24 08:39:07;;;;;;;29.17;16.67;;;;;;;;;;5052784;28;20080;-65
2022/01/24 08:41:44;;;;;;;27.95;16.27;;;;;;;;;;5040919;28;20172;-65
2022/01/24 08:44:19;;;;;;;27.50;16.48;;;;;;;;;;5050336;28;20175;-65
2022/01/24 08:46:46;;;;;;;27.33;15.65;;;;;;;;;;5047477;28;20041;-62
2022/01/24 08:49:13;;;;;;;26.77;15.73;;;;;;;;;;5046266;28;20099;-62
2022/01/24 08:51:39;;;;;;;27.50;16.08;;;;;;;;;;5046732;28;20045;-62
2022/01/24 08:54:06;;;;;;;29.33;15.57;;;;;;;;;;5033182;28;20041;-63
2022/01/24 08:56:32;;;;;;;28.65;16.05;;;;;;;;;;5032702;28;20053;-63
2022/01/24 08:58:59;;;;;;;30.75;17.58;;;;;;;;;;5037280;28;20042;-62
2022/01/24 09:01:25;;;;;;;30.33;17.40;;;;;;;;;;5031929;28;20053;-62
2022/01/24 09:03:51;;;;;;;29.48;17.27;;;;;;;;;;5031506;28;20129;-61
2022/01/24 09:06:18;;;;;;;32.15;17.63;;;;;;;;;;5043610;28;20420;-62
2022/01/24 09:08:45;;;;;;;28.63;17.38;;;;;;;;;;5042514;28;20073;-61
2022/01/24 09:11:11;;;;;;;32.53;17.88;;;;;;;;;;5059811;28;20041;-61
2022/01/24 09:13:37;;;;;;;33.92;18.80;;;;;;;;;;5042340;28;20045;-62
2022/01/24 09:16:04;;;;;;;33.42;18.60;;;;;;;;;;5041059;28;20083;-67
2022/01/24 09:18:30;;;;;;;35.00;19.58;;;;;;;;;;5047633;28;20080;-65
2022/01/24 09:21:00;;;;;;;35.25;19.10;;;;;;;;;;5043047;28;20366;-63
2022/01/24 09:23:26;;;;;;;42.38;21.02;;;;;;;;;;5040051;28;20075;-63
2022/01/24 09:25:52;;;;;;;34.47;19.20;;;;;;;;;;5038513;28;20046;-63
2022/01/24 09:28:18;;;;;;;32.65;19.00;;;;;;;;;;5035963;28;20049;-63
2022/01/24 09:30:45;;;;;;;36.40;20.73;;;;;;;;;;5045036;28;20033;-63
2022/01/24 09:33:12;;;;;;;33.13;18.02;;;;;;;;;;5049862;28;20052;-65
2022/01/24 09:35:40;;;;;;;34.47;19.63;;;;;;;;;;5065115;28;20044;-65
2022/01/24 09:38:06;;;;;;;32.95;19.38;;;;;;;;;;5048340;28;20063;-66
2022/01/24 09:40:33;;;;;;;35.22;18.55;;;;;;;;;;5046819;28;20041;-64
2022/01/24 09:42:59;;;;;;;32.88;18.25;;;;;;;;;;5045393;28;20103;-63
2022/01/24 09:45:26;;;;;;;32.70;17.98;;;;;;;;;;5047641;28;20052;-64
2022/01/24 09:47:53;;;;;;;31.10;18.60;;;;;;;;;;5044735;28;20034;-62
2022/01/24 09:50:19;;;;;;;33.53;20.17;;;;;;;;;;5057655;28;20504;-64
2022/01/24 09:52:46;;;;;;;35.20;20.20;;;;;;;;;;5041144;28;20365;-62
2022/01/24 09:55:13;;;;;;;39.05;19.92;;;;;;;;;;5038414;28;20044;-63
2022/01/24 09:57:41;;;;;;;32.58;19.30;;;;;;;;;;5036753;28;20064;-63
2022/01/24 10:00:08;;;;;;;34.85;19.52;;;;;;;;;;5040328;28;20764;-63
2022/01/24 10:02:34;;;;;;;32.50;20.13;;;;;;;;;;5038763;28;20107;-63
2022/01/24 10:05:14;;;;;;;31.27;19.17;;;;;;;;;;5035294;28;20073;-63
2022/01/24 10:07:41;;;;;;;34.58;19.77;;;;;;;;;;5039861;28;20094;-64
2022/01/24 10:10:07;;;;;;;37.75;19.42;;;;;;;;;;5038898;28;20041;-63
2022/01/24 10:17:54;;;;;;;34.72;21.05;;;;;;;;;;5042321;28;20042;-63
2022/01/24 10:20:22;;;;;;;35.30;19.83;;;;;;;;;;5053895;28;20056;-63
2022/01/24 10:23:05;;;;;;;33.50;20.77;;;;;;;;;;5045129;28;20044;-63
2022/01/24 10:25:32;;;;;;;36.67;19.83;;;;;;;;;;5036192;28;20064;-63
2022/01/24 10:28:03;;;;;;;36.55;22.15;;;;;;;;;;5032637;28;20356;-63
2022/01/24 10:30:29;;;;;;;44.13;21.08;;;;;;;;;;5051155;28;20476;-63
2022/01/24 10:32:56;;;;;;;34.63;21.55;;;;;;;;;;5041731;28;20126;-63
2022/01/24 10:35:28;;;;;;;33.15;19.90;;;;;;;;;;5041991;28;20125;-69
2022/01/24 10:38:18;;;;;;;33.88;20.55;;;;;;;;;;5039418;28;21768;-63
2022/01/24 10:40:52;;;;;;;38.28;21.38;;;;;;;;;;5038454;28;20045;-63
2022/01/24 10:43:20;;;;;;;34.28;20.52;;;;;;;;;;5042363;28;20064;-63
2022/01/24 10:45:47;;;;;;;36.55;20.80;;;;;;;;;;5048431;28;20114;-62
2022/01/24 10:48:13;;;;;;;38.78;21.45;;;;;;;;;;5044307;28;20045;-64
2022/01/24 10:50:39;;;;;;;33.30;20.80;;;;;;;;;;5044226;28;20488;-64
2022/01/24 10:53:13;;;;;;;34.08;19.67;;;;;;;;;;5046325;28;20124;-63
2022/01/24 10:55:40;;;;;;;33.92;20.50;;;;;;;;;;5049666;28;20454;-63
2022/01/24 10:58:08;;;;;;;38.00;22.13;;;;;;;;;;5040981;28;20103;-64
2022/01/24 11:00:35;;;;;;;38.00;21.55;;;;;;;;;;5040861;28;20043;-62
2022/01/24 11:03:03;;;;;;;33.70;20.27;;;;;;;;;;5039406;28;20402;-64
2022/01/24 11:05:30;;;;;;;36.75;21.33;;;;;;;;;;5039555;28;20057;-64
2022/01/24 11:08:02;;;;;;;35.65;20.95;;;;;;;;;;5037982;28;20045;-64
2022/01/24 11:10:29;;;;;;;34.75;21.65;;;;;;;;;;5047700;28;20041;-64
2022/01/24 11:12:55;;;;;;;36.03;22.23;;;;;;;;;;5045145;28;20121;-65
2022/01/24 11:15:22;;;;;;;31.55;20.48;;;;;;;;;;5058655;28;20465;-64
2022/01/24 11:17:49;;;;;;;35.13;20.10;;;;;;;;;;5040887;28;20132;-64
2022/01/24 11:20:18;;;;;;;36.45;22.25;;;;;;;;;;5039203;28;20045;-64
2022/01/24 11:22:58;;;;;;;32.30;20.13;;;;;;;;;;5039926;28;20068;-63
2022/01/24 11:25:26;;;;;;;36.25;21.20;;;;;;;;;;5045897;28;20045;-63
2022/01/24 11:27:52;;;;;;;32.50;19.90;;;;;;;;;;5044010;28;20060;-64
2022/01/24 11:30:21;;;;;;;35.95;21.25;;;;;;;;;;5047535;28;20041;-63
2022/01/24 11:32:51;;;;;;;36.10;20.90;;;;;;;;;;5045459;28;20119;-64
2022/01/24 11:35:30;;;;;;;37.00;21.75;;;;;;;;;;5045855;28;20167;-64
2022/01/24 11:37:58;;;;;;;32.83;20.63;;;;;;;;;;5058282;28;20049;-63
2022/01/24 11:40:24;;;;;;;35.67;21.88;;;;;;;;;;5044892;28;20045;-64
2022/01/24 11:42:51;;;;;;;41.90;21.40;;;;;;;;;;5045647;28;20064;-64
2022/01/24 11:45:32;;;;;;;33.08;20.05;;;;;;;;;;5045482;28;20040;-64
2022/01/24 11:48:13;;;;;;;33.97;20.77;;;;;;;;;;5044381;28;20037;-63
2022/01/24 11:50:39;;;;;;;35.63;21.05;;;;;;;;;;5046952;28;20174;-64
2022/01/24 11:53:21;;;;;;;32.17;20.00;;;;;;;;;;5045621;28;20124;-64
2022/01/24 11:55:48;;;;;;;31.23;20.17;;;;;;;;;;5038931;28;20049;-64
2022/01/24 11:58:21;;;;;;;33.83;21.25;;;;;;;;;;5040149;28;20156;-63
2022/01/24 12:00:47;;;;;;;35.65;22.27;;;;;;;;;;5043367;28;20052;-63
2022/01/24 12:03:15;;;;;;;37.03;22.25;;;;;;;;;;5041071;28;20053;-63
2022/01/24 12:05:44;;;;;;;36.70;21.48;;;;;;;;;;5039439;28;20085;-63
2022/01/24 12:08:12;;;;;;;37.47;21.38;;;;;;;;;;5033420;28;20056;-64
2022/01/24 12:10:42;;;;;;;36.90;22.55;;;;;;;;;;5046377;28;20124;-63
2022/01/24 12:13:14;;;;;;;36.90;22.55;;;;;;;;;;5049695;28;20072;-64
2022/01/24 12:15:41;;;;;;;37.40;21.90;;;;;;;;;;5045366;28;20045;-64
2022/01/24 12:18:43;;;;;;;33.33;21.10;;;;;;;;;;5037729;28;20041;-63
2022/01/24 12:21:11;;;;;;;37.53;22.52;;;;;;;;;;5037764;28;20049;-63
2022/01/24 12:23:40;;;;;;;35.88;21.10;;;;;;;;;;5041780;28;20037;-63
2022/01/24 12:26:08;;;;;;;34.75;21.05;;;;;;;;;;5043241;28;20122;-63
2022/01/24 12:28:43;;;;;;;38.17;22.27;;;;;;;;;;5043904;28;20045;-64
2022/01/24 12:31:21;;;;;;;38.13;21.17;;;;;;;;;;5042358;28;20045;-63
2022/01/24 12:33:54;;;;;;;36.83;22.77;;;;;;;;;;5045114;28;20453;-63
2022/01/24 12:36:48;;;;;;;44.88;26.15;;;;;;;;;;5048382;28;20108;-64
2022/01/24 12:39:21;;;;;;;41.47;25.83;;;;;;;;;;5047114;28;20098;-65
2022/01/24 12:41:51;;;;;;;42.88;24.80;;;;;;;;;;5047110;28;20057;-65
2022/01/24 12:47:01;;;;;;;41.38;22.85;;;;;;;;;;5045777;28;20490;-65
2022/01/24 12:49:28;;;;;;;40.22;23.05;;;;;;;;;;5042866;28;20654;-65
2022/01/24 12:51:55;;;;;;;38.00;22.10;;;;;;;;;;5039589;28;20045;-65
2022/01/24 12:54:28;;;;;;;42.28;24.85;;;;;;;;;;5035857;28;20042;-65
2022/01/24 12:56:58;;;;;;;45.50;28.30;;;;;;;;;;5038721;28;20049;-65
2022/01/24 12:59:24;;;;;;;49.42;28.77;;;;;;;;;;5041235;28;20056;-65
2022/01/24 13:01:53;;;;;;;45.55;28.10;;;;;;;;;;5042111;28;20053;-65
2022/01/24 13:04:19;;;;;;;45.05;27.60;;;;;;;;;;5047826;28;20446;-65
2022/01/24 13:06:46;;;;;;;48.67;27.83;;;;;;;;;;5046237;28;20477;-64
2022/01/24 13:09:13;;;;;;;43.90;25.88;;;;;;;;;;5048338;28;20075;-64
2022/01/24 13:11:53;;;;;;;42.58;26.02;;;;;;;;;;5046447;28;20413;-64
2022/01/24 13:14:29;;;;;;;46.45;25.98;;;;;;;;;;5044308;28;20504;-64
2022/01/24 13:22:40;;;;;;;40.72;25.38;;;;;;;;;;5042380;28;20057;-65
2022/01/24 13:25:07;;;;;;;44.08;26.00;;;;;;;;;;5034757;28;20098;-66
2022/01/24 13:27:35;;;;;;;48.40;29.35;;;;;;;;;;5040458;28;20084;-63
2022/01/24 13:30:01;;;;;;;44.58;28.20;;;;;;;;;;5041887;28;20100;-63
2022/01/24 13:32:43;;;;;;;47.10;28.83;;;;;;;;;;5039128;28;20128;-62
2022/01/24 13:35:16;;;;;;;45.40;27.35;;;;;;;;;;5038276;28;20053;-62
2022/01/24 13:37:42;;;;;;;45.72;26.95;;;;;;;;;;5037799;28;20041;-62
2022/01/24 13:40:08;;;;;;;53.38;33.88;;;;;;;;;;5037149;28;20393;-63
2022/01/24 13:42:35;;;;;;;51.42;32.70;;;;;;;;;;5034172;28;20050;-62
2022/01/24 13:45:01;;;;;;;57.72;35.53;;;;;;;;;;5034814;28;20064;-62
2022/01/24 13:47:27;;;;;;;51.05;32.60;;;;;;;;;;5034281;28;20451;-62
2022/01/24 13:49:53;;;;;;;49.15;32.40;;;;;;;;;;5043421;28;20045;-63
2022/01/24 13:52:21;;;;;;;53.45;33.33;;;;;;;;;;5044121;28;20037;-62
2022/01/24 13:54:47;;;;;;;52.35;33.38;;;;;;;;;;5041738;28;20059;-63
2022/01/24 13:57:18;;;;;;;56.33;34.00;;;;;;;;;;5040070;28;20160;-62
2022/01/24 13:59:44;;;;;;;51.22;33.60;;;;;;;;;;5042465;28;20111;-64
2022/01/24 14:02:13;;;;;;;50.70;33.10;;;;;;;;;;5041836;28;20048;-63
2022/01/24 14:04:43;;;;;;;54.75;33.83;;;;;;;;;;5043236;28;22126;-63
2022/01/24 14:07:11;;;;;;;51.67;33.88;;;;;;;;;;5040678;28;20098;-62
2022/01/24 14:09:40;;;;;;;50.03;32.20;;;;;;;;;;5042760;28;20044;-62
2022/01/24 14:12:08;;;;;;;52.13;33.72;;;;;;;;;;5047990;28;20451;-62
2022/01/24 14:14:52;;;;;;;54.65;34.78;;;;;;;;;;5048434;28;20045;-63
2022/01/24 14:17:31;;;;;;;44.60;31.45;;;;;;;;;;5047403;28;20072;-63
2022/01/24 14:19:59;;;;;;;48.45;31.83;;;;;;;;;;5046729;28;20194;-63
2022/01/24 14:22:36;;;;;;;48.95;32.75;;;;;;;;;;5045853;28;20049;-63
2022/01/24 14:25:03;;;;;;;52.10;33.17;;;;;;;;;;5044872;28;20037;-63
2022/01/24 14:27:41;;;;;;;54.45;34.83;;;;;;;;;;5045681;28;20052;-63
2022/01/24 14:30:13;;;;;;;53.90;35.55;;;;;;;;;;5049597;28;20177;-63
2022/01/24 14:32:47;;;;;;;51.58;33.05;;;;;;;;;;5041808;28;20045;-63
2022/01/24 14:35:14;;;;;;;55.55;34.85;;;;;;;;;;5052562;28;20134;-63
2022/01/24 14:37:45;;;;;;;49.17;32.50;;;;;;;;;;5046766;28;20049;-62
2022/01/24 14:40:13;;;;;;;50.55;32.85;;;;;;;;;;5049404;28;20056;-62
2022/01/24 14:42:46;;;;;;;50.17;33.08;;;;;;;;;;5047740;28;20061;-63
2022/01/24 14:45:12;;;;;;;51.47;33.17;;;;;;;;;;5046578;28;20045;-63
2022/01/24 14:47:39;;;;;;;53.53;33.20;;;;;;;;;;5038802;28;20099;-63
2022/01/24 14:50:05;;;;;;;49.67;32.03;;;;;;;;;;5048395;28;20715;-63
2022/01/24 14:52:35;;;;;;;55.13;33.80;;;;;;;;;;5048547;28;20044;-63
2022/01/24 14:55:01;;;;;;;50.60;32.47;;;;;;;;;;5045261;28;20048;-63
2022/01/24 14:57:27;;;;;;;50.35;32.13;;;;;;;;;;5046970;28;20041;-63
2022/01/24 14:59:54;;;;;;;56.67;33.90;;;;;;;;;;5042147;28;20124;-63
2022/01/24 15:02:20;;;;;;;52.58;33.33;;;;;;;;;;5044399;28;20091;-63
2022/01/24 15:04:46;;;;;;;52.25;35.10;;;;;;;;;;5048574;28;20037;-62
2022/01/24 15:07:13;;;;;;;52.80;34.83;;;;;;;;;;5044821;28;20079;-62
2022/01/24 15:09:40;;;;;;;50.83;33.88;;;;;;;;;;5049750;28;20076;-63
2022/01/24 15:12:07;;;;;;;52.03;33.65;;;;;;;;;;5048192;28;20060;-63
2022/01/24 15:14:38;;;;;;;51.20;33.25;;;;;;;;;;5045059;28;20056;-63
2022/01/24 15:17:39;;;;;;;54.05;33.55;;;;;;;;;;5045728;28;20041;-63
2022/01/24 15:25:23;;;;;;;58.17;34.22;;;;;;;;;;5049554;28;20052;-63
2022/01/24 15:27:51;;;;;;;51.42;32.17;;;;;;;;;;5063981;28;20056;-63
2022/01/24 15:30:19;;;;;;;58.17;34.85;;;;;;;;;;5048719;28;20041;-63
2022/01/24 15:32:45;;;;;;;54.38;35.47;;;;;;;;;;5051369;28;20068;-63
2022/01/24 15:35:14;;;;;;;55.05;34.97;;;;;;;;;;5047078;28;20045;-63
2022/01/24 15:37:40;;;;;;;53.47;34.40;;;;;;;;;;5051634;28;20206;-63
2022/01/24 15:40:07;;;;;;;57.22;35.47;;;;;;;;;;5061581;28;20118;-63
2022/01/24 15:42:42;;;;;;;57.03;34.38;;;;;;;;;;5051005;28;20505;-63
2022/01/24 15:47:44;;;;;;;56.72;35.33;;;;;;;;;;5053994;28;20048;-64
2022/01/24 15:50:13;;;;;;;55.42;35.15;;;;;;;;;;5052084;28;20530;-63
2022/01/24 15:52:40;;;;;;;55.80;35.67;;;;;;;;;;5051017;28;20463;-63
2022/01/24 15:55:08;;;;;;;54.60;35.33;;;;;;;;;;5052801;28;20041;-63
2022/01/24 15:57:42;;;;;;;53.10;33.72;;;;;;;;;;5041395;28;20044;-62
2022/01/24 16:00:10;;;;;;;58.95;34.22;;;;;;;;;;5046519;28;20037;-63
2022/01/24 16:02:36;;;;;;;55.33;35.45;;;;;;;;;;5042810;28;20518;-62
2022/01/24 16:05:02;;;;;;;60.00;36.85;;;;;;;;;;5056136;28;20464;-62
2022/01/24 16:07:29;;;;;;;53.63;35.42;;;;;;;;;;5041449;28;20508;-63
2022/01/24 16:09:55;;;;;;;52.28;34.13;;;;;;;;;;5041559;28;20041;-63